createdAt,value
2022-10-06T00:00:45.199Z,18.60
2022-10-06T00:03:12.539Z,18.70
2022-10-06T00:05:43.890Z,18.60
2022-10-06T00:08:11.700Z,18.60
2022-10-06T00:10:43.000Z,18.60
2022-10-06T00:13:20.270Z,18.60
2022-10-06T00:15:47.296Z,18.50
2022-10-06T00:18:14.034Z,18.60
2022-10-06T00:20:43.459Z,18.60
2022-10-06T00:23:11.505Z,18.50
2022-10-06T00:25:43.070Z,18.60
2022-10-06T00:28:11.349Z,18.50
2022-10-06T00:30:38.361Z,18.60
2022-10-06T00:33:05.125Z,18.40
2022-10-06T00:35:35.097Z,18.50
2022-10-06T00:38:02.084Z,18.50
2022-10-06T00:40:29.654Z,18.40
2022-10-06T00:43:06.491Z,18.40
2022-10-06T00:45:42.299Z,18.30
2022-10-06T00:48:18.982Z,18.30
2022-10-06T00:50:46.582Z,18.20
2022-10-06T00:53:16.030Z,18.20
2022-10-06T00:55:47.801Z,18.20
2022-10-06T00:58:15.149Z,18.20
2022-10-06T01:00:44.326Z,18.20
2022-10-06T01:03:24.840Z,18.20
2022-10-06T01:05:52.617Z,18.30
2022-10-06T01:08:21.483Z,18.40
2022-10-06T01:10:49.637Z,18.20
2022-10-06T01:13:18.247Z,18.20
2022-10-06T01:15:52.476Z,18.20
2022-10-06T01:18:24.341Z,18.20
2022-10-06T01:21:01.384Z,18.20
2022-10-06T01:23:31.214Z,18.20
2022-10-06T01:25:59.139Z,18.10
2022-10-06T01:28:27.873Z,18.10
2022-10-06T01:30:57.265Z,18.10
2022-10-06T01:33:24.477Z,18.10
2022-10-06T01:35:55.316Z,18.10
2022-10-06T01:38:22.776Z,18.10
2022-10-06T01:40:51.751Z,18.10
2022-10-06T01:43:18.567Z,18.20
2022-10-06T01:45:45.348Z,18.10
2022-10-06T01:48:13.177Z,18.10
2022-10-06T01:50:42.529Z,18.10
2022-10-06T01:53:09.242Z,18.10
2022-10-06T01:55:36.247Z,18.10
2022-10-06T01:58:03.067Z,18.20
2022-10-06T02:00:30.963Z,18.10
2022-10-06T02:02:58.075Z,18.10
2022-10-06T02:05:27.245Z,18.10
2022-10-06T02:07:54.096Z,18.20
2022-10-06T02:10:23.679Z,18.10
2022-10-06T02:12:52.514Z,18.10
2022-10-06T02:15:20.604Z,18.10
2022-10-06T02:17:50.413Z,18.10
2022-10-06T02:20:18.000Z,18.10
2022-10-06T02:25:29.585Z,18.00
2022-10-06T02:27:56.589Z,18.00
2022-10-06T02:30:23.265Z,18.00
2022-10-06T02:32:49.960Z,17.90
2022-10-06T02:35:18.981Z,18.00
2022-10-06T02:37:46.095Z,17.90
2022-10-06T02:40:13.465Z,17.90
2022-10-06T02:42:41.017Z,17.90
2022-10-06T02:45:14.515Z,17.80
2022-10-06T02:47:46.805Z,17.80
2022-10-06T02:52:56.351Z,17.80
2022-10-06T02:55:23.037Z,17.80
2022-10-06T02:57:49.716Z,17.70
2022-10-06T03:00:16.614Z,17.70
2022-10-06T03:02:43.425Z,17.60
2022-10-06T03:05:10.285Z,17.60
2022-10-06T03:07:37.435Z,17.60
2022-10-06T03:10:04.367Z,17.60
2022-10-06T03:12:31.525Z,17.60
2022-10-06T03:14:58.174Z,17.50
2022-10-06T03:17:24.912Z,17.50
2022-10-06T03:19:51.654Z,17.60
2022-10-06T03:22:18.341Z,17.50
2022-10-06T03:24:45.378Z,17.50
2022-10-06T03:27:12.411Z,17.50
2022-10-06T03:29:39.134Z,17.40
2022-10-06T03:32:05.797Z,17.40
2022-10-06T03:34:32.713Z,17.30
2022-10-06T03:36:59.524Z,17.30
2022-10-06T03:39:26.192Z,17.30
2022-10-06T03:41:52.843Z,17.30
2022-10-06T03:44:21.933Z,17.20
2022-10-06T03:46:49.171Z,17.20
2022-10-06T03:49:15.921Z,17.20
2022-10-06T03:51:43.300Z,17.10
2022-10-06T03:54:11.278Z,17.10
2022-10-06T03:56:41.005Z,17.10
2022-10-06T03:59:11.390Z,17.10
2022-10-06T04:01:40.666Z,17.00
2022-10-06T04:04:07.686Z,17.00
2022-10-06T04:06:38.060Z,17.00
2022-10-06T04:09:14.775Z,17.00
2022-10-06T04:11:43.100Z,16.90
2022-10-06T04:14:13.185Z,16.90
2022-10-06T04:16:48.472Z,16.90
2022-10-06T04:19:17.130Z,16.90
2022-10-06T04:21:46.055Z,16.90
2022-10-06T04:24:13.551Z,16.90
2022-10-06T04:26:45.460Z,16.80
2022-10-06T04:29:12.782Z,16.80
2022-10-06T04:31:41.067Z,16.70
2022-10-06T04:36:40.100Z,16.90
2022-10-06T04:39:10.614Z,17.10
2022-10-06T04:41:39.399Z,16.90
2022-10-06T04:44:07.139Z,16.60
2022-10-06T04:46:43.882Z,16.60
2022-10-06T04:49:18.871Z,16.70
2022-10-06T04:51:46.972Z,16.80
2022-10-06T04:56:41.487Z,16.70
2022-10-06T04:59:08.129Z,16.60
2022-10-06T05:09:08.949Z,16.50
2022-10-06T05:11:36.012Z,16.40
2022-10-06T05:14:02.696Z,16.30
2022-10-06T05:16:30.727Z,16.30
2022-10-06T05:18:58.350Z,16.20
2022-10-06T05:21:27.922Z,16.20
2022-10-06T05:23:54.791Z,16.10
2022-10-06T05:26:24.807Z,16.10
2022-10-06T05:28:51.612Z,16.20
2022-10-06T05:31:24.971Z,16.10
2022-10-06T05:33:51.648Z,16.00
2022-10-06T05:36:26.706Z,16.10
2022-10-06T05:43:50.452Z,16.00
2022-10-06T05:46:28.820Z,15.90
2022-10-06T05:49:08.052Z,15.80
2022-10-06T05:51:37.024Z,15.80
2022-10-06T05:54:23.928Z,15.80
2022-10-06T05:56:50.605Z,15.80
2022-10-06T05:59:17.593Z,15.80
2022-10-06T06:01:44.462Z,15.80
2022-10-06T06:04:13.215Z,15.80
2022-10-06T06:06:42.867Z,15.70
2022-10-06T06:09:12.064Z,15.80
2022-10-06T06:11:41.776Z,15.70
2022-10-06T06:14:13.681Z,15.70
2022-10-06T06:16:42.040Z,15.70
2022-10-06T06:19:12.561Z,15.70
2022-10-06T06:21:39.636Z,15.70
2022-10-06T06:24:09.371Z,15.70
2022-10-06T06:26:37.466Z,15.90
2022-10-06T06:29:06.230Z,15.70
2022-10-06T06:31:46.267Z,15.70
2022-10-06T06:34:13.464Z,15.50
2022-10-06T06:36:44.938Z,15.70
2022-10-06T06:39:14.020Z,15.70
2022-10-06T06:41:47.724Z,15.70
2022-10-06T06:44:14.772Z,15.70
2022-10-06T06:46:43.525Z,15.70
2022-10-06T06:49:12.606Z,15.80
2022-10-06T06:51:41.872Z,15.70
2022-10-06T06:54:10.264Z,15.80
2022-10-06T06:56:38.644Z,15.80
2022-10-06T06:59:10.832Z,15.90
2022-10-06T07:01:48.760Z,15.90
2022-10-06T07:04:16.971Z,15.90
2022-10-06T07:06:54.081Z,16.00
2022-10-06T07:09:25.366Z,15.90
2022-10-06T07:11:52.101Z,16.00
2022-10-06T07:14:19.850Z,16.00
2022-10-06T07:17:06.134Z,16.10
2022-10-06T07:19:47.238Z,16.00
2022-10-06T07:22:35.158Z,16.30
2022-10-06T07:25:10.658Z,16.20
2022-10-06T07:27:42.839Z,16.30
2022-10-06T07:30:12.374Z,16.40
2022-10-06T07:32:40.143Z,16.40
2022-10-06T07:35:09.938Z,16.50
2022-10-06T07:37:37.077Z,16.60
2022-10-06T07:40:06.505Z,16.60
2022-10-06T07:42:48.687Z,16.70
2022-10-06T07:45:36.497Z,16.80
2022-10-06T07:48:04.376Z,16.80
2022-10-06T07:50:33.349Z,16.90
2022-10-06T07:53:01.762Z,17.00
2022-10-06T07:57:59.341Z,17.40
2022-10-06T08:00:26.637Z,17.50
2022-10-06T08:02:55.880Z,17.60
2022-10-06T08:05:23.008Z,17.70
2022-10-06T08:07:50.343Z,18.00
2022-10-06T08:10:18.835Z,18.10
2022-10-06T08:15:35.004Z,18.40
2022-10-06T08:18:12.187Z,18.50
2022-10-06T08:20:50.255Z,18.70
2022-10-06T08:23:17.058Z,18.90
2022-10-06T08:25:51.375Z,19.00
2022-10-06T08:28:18.316Z,19.20
2022-10-06T08:30:45.036Z,19.30
2022-10-06T08:33:12.082Z,19.40
2022-10-06T08:35:39.561Z,19.50
2022-10-06T08:38:06.416Z,19.50
2022-10-06T08:40:34.421Z,19.50
2022-10-06T08:43:04.515Z,19.80
2022-10-06T08:45:38.619Z,19.80
2022-10-06T08:48:16.060Z,19.90
2022-10-06T08:51:12.596Z,20.00
2022-10-06T08:53:56.535Z,20.10
2022-10-06T08:56:29.697Z,20.20
2022-10-06T08:58:59.709Z,20.30
2022-10-06T09:01:43.449Z,20.30
2022-10-06T09:04:18.325Z,20.40
2022-10-06T09:07:13.495Z,20.40
2022-10-06T09:10:16.530Z,20.50
2022-10-06T09:15:24.113Z,20.60
2022-10-06T09:17:56.289Z,20.60
2022-10-06T09:20:54.423Z,20.70
2022-10-06T09:23:42.177Z,20.70
2022-10-06T09:26:13.239Z,20.70
2022-10-06T09:28:40.283Z,20.80
2022-10-06T09:31:21.460Z,20.80
2022-10-06T09:33:53.378Z,20.90
2022-10-06T09:36:20.332Z,20.90
2022-10-06T09:38:53.975Z,20.70
2022-10-06T09:41:44.418Z,20.70
2022-10-06T09:44:27.536Z,20.80
2022-10-06T09:46:54.606Z,20.80
2022-10-06T09:49:26.785Z,20.80
2022-10-06T09:52:03.920Z,20.80
2022-10-06T09:54:31.626Z,20.80
2022-10-06T09:57:00.082Z,20.70
2022-10-06T09:59:40.105Z,20.70
2022-10-06T10:02:27.206Z,20.70
2022-10-06T10:04:57.992Z,20.70
2022-10-06T10:07:30.980Z,20.70
2022-10-06T10:10:22.815Z,20.70
2022-10-06T10:12:58.433Z,20.70
2022-10-06T10:15:48.882Z,20.70
2022-10-06T10:18:17.038Z,20.70
2022-10-06T10:20:59.442Z,20.70
2022-10-06T10:23:36.548Z,20.60
2022-10-06T10:26:15.370Z,20.70
2022-10-06T10:29:33.169Z,20.70
2022-10-06T10:32:24.861Z,20.60
2022-10-06T10:35:40.635Z,20.60
2022-10-06T10:38:21.129Z,20.70
2022-10-06T10:41:04.569Z,20.60
2022-10-06T10:43:57.151Z,20.70
2022-10-06T10:46:33.450Z,20.60
2022-10-06T10:49:10.026Z,20.70
2022-10-06T10:51:50.817Z,20.70
2022-10-06T10:54:33.886Z,20.70
2022-10-06T10:57:01.324Z,20.70
2022-10-06T10:59:34.833Z,20.70
2022-10-06T11:02:18.615Z,20.70
2022-10-06T11:04:50.661Z,20.70
2022-10-06T11:07:33.926Z,20.70
2022-10-06T11:10:13.558Z,20.70
2022-10-06T11:13:16.350Z,20.70
2022-10-06T11:16:04.233Z,20.70
2022-10-06T11:18:49.519Z,20.70
2022-10-06T11:21:36.888Z,20.70
2022-10-06T11:24:24.607Z,20.60
2022-10-06T11:27:21.506Z,20.60
2022-10-06T11:30:02.181Z,20.60
2022-10-06T11:32:56.477Z,20.60
2022-10-06T11:35:29.302Z,20.60
2022-10-06T11:38:06.987Z,20.70
2022-10-06T11:40:50.069Z,20.60
2022-10-06T11:43:29.097Z,20.60
2022-10-06T11:46:20.280Z,20.60
2022-10-06T11:48:48.198Z,20.60
2022-10-06T11:51:24.520Z,20.50
2022-10-06T11:53:52.495Z,20.50
2022-10-06T11:56:19.336Z,20.50
2022-10-06T11:58:53.199Z,20.60
2022-10-06T12:01:32.863Z,20.50
2022-10-06T12:04:09.003Z,20.50
2022-10-06T12:06:44.862Z,20.50
2022-10-06T12:09:28.269Z,20.50
2022-10-06T12:12:00.198Z,20.50
2022-10-06T12:18:09.445Z,20.50
2022-10-06T12:21:06.430Z,20.40
2022-10-06T12:24:04.178Z,20.40
2022-10-06T12:26:55.621Z,20.40
2022-10-06T12:29:34.526Z,20.40
2022-10-06T12:32:06.993Z,20.40
2022-10-06T12:34:39.798Z,20.50
2022-10-06T12:37:40.000Z,20.40
2022-10-06T12:40:47.874Z,20.40
2022-10-06T12:43:14.599Z,20.30
2022-10-06T12:46:18.660Z,20.40
2022-10-06T12:49:15.043Z,20.40
2022-10-06T12:51:41.697Z,20.40
2022-10-06T12:54:26.969Z,20.40
2022-10-06T12:56:59.250Z,20.40
2022-10-06T12:59:27.700Z,20.40
2022-10-06T13:02:00.344Z,20.40
2022-10-06T13:04:44.121Z,20.40
2022-10-06T13:07:25.909Z,20.40
2022-10-06T13:10:17.408Z,20.40
2022-10-06T13:12:47.209Z,20.40
2022-10-06T13:15:33.355Z,20.40
2022-10-06T13:18:22.112Z,20.40
2022-10-06T13:20:51.451Z,20.30
2022-10-06T13:23:21.278Z,20.40
2022-10-06T13:25:59.897Z,20.40
2022-10-06T13:28:44.818Z,20.40
2022-10-06T13:31:14.545Z,20.40
2022-10-06T13:33:45.357Z,20.30
2022-10-06T13:36:13.529Z,20.30
2022-10-06T13:38:41.762Z,20.40
2022-10-06T13:41:43.208Z,20.30
2022-10-06T13:44:15.617Z,20.30
2022-10-06T13:47:07.722Z,20.30
2022-10-06T13:49:45.783Z,20.30
2022-10-06T13:52:22.756Z,20.30
2022-10-06T13:54:55.744Z,20.30
2022-10-06T13:57:50.049Z,20.30
2022-10-06T14:00:27.642Z,20.30
2022-10-06T14:02:56.993Z,20.40
2022-10-06T14:05:39.028Z,20.30
2022-10-06T14:08:11.797Z,20.30
2022-10-06T14:10:42.649Z,20.30
2022-10-06T14:13:32.516Z,20.40
2022-10-06T14:16:08.598Z,20.30
2022-10-06T14:18:45.505Z,20.30
2022-10-06T14:21:36.964Z,20.30
2022-10-06T14:24:16.933Z,20.30
2022-10-06T14:26:45.261Z,20.30
2022-10-06T14:29:16.312Z,20.30
2022-10-06T14:31:45.200Z,20.30
2022-10-06T14:34:17.598Z,20.30
2022-10-06T14:36:55.068Z,20.30
2022-10-06T14:39:22.332Z,20.20
2022-10-06T14:41:49.168Z,20.20
2022-10-06T14:44:16.269Z,20.20
2022-10-06T14:46:47.049Z,20.20
2022-10-06T14:49:14.699Z,20.20
2022-10-06T14:51:43.453Z,20.30
2022-10-06T14:54:11.623Z,20.20
2022-10-06T14:56:39.762Z,20.20
2022-10-06T14:59:10.095Z,20.20
2022-10-06T15:01:38.272Z,20.10
2022-10-06T15:04:13.204Z,20.20
2022-10-06T15:06:59.043Z,20.20
2022-10-06T15:09:30.599Z,20.20
2022-10-06T15:11:59.073Z,20.20
2022-10-06T15:14:28.328Z,20.20
2022-10-06T15:16:59.197Z,20.10
2022-10-06T15:19:27.100Z,20.10
2022-10-06T15:21:54.563Z,20.20
2022-10-06T15:24:21.386Z,20.10
2022-10-06T15:27:06.634Z,20.20
2022-10-06T15:29:35.247Z,20.20
2022-10-06T15:32:06.918Z,20.20
2022-10-06T15:34:36.927Z,20.20
2022-10-06T15:37:04.426Z,20.20
2022-10-06T15:39:34.491Z,20.20
2022-10-06T15:42:01.832Z,20.20
2022-10-06T15:44:35.644Z,20.30
2022-10-06T15:47:08.008Z,20.20
2022-10-06T15:49:40.270Z,20.20
2022-10-06T15:52:10.409Z,20.20
2022-10-06T15:54:39.584Z,20.20
2022-10-06T15:57:09.762Z,20.20
2022-10-06T15:59:37.243Z,20.20
2022-10-06T16:02:09.908Z,20.20
2022-10-06T16:04:40.181Z,20.20
2022-10-06T16:07:12.950Z,20.20
2022-10-06T16:09:43.449Z,20.20
2022-10-06T16:12:13.020Z,20.20
2022-10-06T16:14:40.848Z,20.10
2022-10-06T16:17:09.656Z,20.10
2022-10-06T16:19:40.237Z,20.00
2022-10-06T16:22:08.985Z,20.00
2022-10-06T16:24:39.090Z,20.00
2022-10-06T16:27:10.837Z,20.00
2022-10-06T16:29:39.067Z,20.00
2022-10-06T16:32:05.848Z,20.00
2022-10-06T16:34:33.178Z,19.90
2022-10-06T16:36:59.993Z,19.90
2022-10-06T16:39:27.728Z,19.90
2022-10-06T16:41:55.872Z,19.90
2022-10-06T16:44:23.623Z,19.90
2022-10-06T16:46:50.406Z,19.80
2022-10-06T16:49:19.840Z,19.80
2022-10-06T16:51:49.693Z,19.70
2022-10-06T16:54:19.163Z,19.70
2022-10-06T16:56:48.708Z,19.70
2022-10-06T16:59:22.290Z,19.60
2022-10-06T17:01:50.253Z,19.60
2022-10-06T17:04:22.611Z,19.60
2022-10-06T17:06:57.072Z,19.50
2022-10-06T17:09:26.230Z,19.50
2022-10-06T17:11:56.717Z,19.40
2022-10-06T17:14:23.846Z,19.30
2022-10-06T17:16:53.974Z,19.20
2022-10-06T17:19:25.238Z,19.20
2022-10-06T17:21:58.504Z,19.10
2022-10-06T17:24:27.954Z,19.00
2022-10-06T17:26:55.946Z,18.90
2022-10-06T17:29:26.155Z,18.90
2022-10-06T17:31:56.150Z,18.70
2022-10-06T17:34:26.550Z,18.70
2022-10-06T17:36:57.374Z,18.60
2022-10-06T17:39:24.649Z,18.70
2022-10-06T17:41:55.557Z,18.60
2022-10-06T17:44:26.046Z,18.60
2022-10-06T17:46:57.782Z,18.50
2022-10-06T17:49:26.537Z,18.50
2022-10-06T17:51:57.357Z,18.40
2022-10-06T17:54:26.808Z,18.30
2022-10-06T17:56:58.450Z,18.30
2022-10-06T17:59:30.889Z,18.10
2022-10-06T18:04:27.271Z,18.10
2022-10-06T18:06:54.453Z,18.00
2022-10-06T18:09:21.661Z,17.90
2022-10-06T18:11:54.469Z,17.90
2022-10-06T18:14:24.429Z,17.80
2022-10-06T18:16:59.485Z,17.80
2022-10-06T18:19:35.603Z,17.70
2022-10-06T18:22:10.570Z,17.70
2022-10-06T18:24:37.945Z,17.60
2022-10-06T18:27:06.381Z,17.60
2022-10-06T18:29:36.721Z,17.60
2022-10-06T18:37:44.632Z,17.40
2022-10-06T18:40:12.140Z,17.40
2022-10-06T18:42:41.742Z,17.30
2022-10-06T18:45:28.806Z,17.30
2022-10-06T18:48:15.683Z,17.20
2022-10-06T18:50:42.717Z,17.20
2022-10-06T18:53:11.724Z,17.10
2022-10-06T18:55:38.446Z,17.00
2022-10-06T18:58:05.296Z,17.00
2022-10-06T19:00:33.482Z,16.90
2022-10-06T19:03:00.208Z,17.00
2022-10-06T19:05:31.015Z,16.90
2022-10-06T19:07:57.932Z,17.00
2022-10-06T19:10:24.725Z,16.90
2022-10-06T19:12:52.638Z,16.90
2022-10-06T19:15:21.049Z,16.90
2022-10-06T19:17:49.185Z,16.80
2022-10-06T19:20:16.223Z,16.70
2022-10-06T19:22:45.214Z,16.60
2022-10-06T19:25:15.580Z,16.60
2022-10-06T19:27:42.489Z,16.50
2022-10-06T19:30:09.468Z,16.50
2022-10-06T19:32:36.253Z,16.50
2022-10-06T19:35:07.672Z,16.40
2022-10-06T19:37:37.738Z,16.40
2022-10-06T19:40:05.341Z,16.30
2022-10-06T19:42:51.311Z,16.30
2022-10-06T19:45:20.688Z,16.30
2022-10-06T19:47:49.432Z,16.20
2022-10-06T19:50:17.695Z,16.20
2022-10-06T19:52:45.771Z,16.10
2022-10-06T19:55:12.571Z,16.10
2022-10-06T19:57:40.820Z,16.10
2022-10-06T20:00:08.732Z,16.10
2022-10-06T20:02:39.862Z,16.00
2022-10-06T20:05:09.084Z,16.00
2022-10-06T20:07:35.845Z,15.90
2022-10-06T20:10:03.268Z,15.90
2022-10-06T20:12:30.127Z,15.80
2022-10-06T20:14:57.588Z,15.80
2022-10-06T20:17:24.302Z,15.80
2022-10-06T20:19:57.778Z,15.70
2022-10-06T20:22:25.309Z,15.70
2022-10-06T20:24:53.293Z,15.60
2022-10-06T20:27:22.000Z,15.60
2022-10-06T20:29:48.775Z,15.60
2022-10-06T20:32:16.975Z,15.50
2022-10-06T20:34:44.987Z,15.50
2022-10-06T20:37:11.834Z,15.40
2022-10-06T20:39:57.247Z,15.40
2022-10-06T20:42:24.027Z,15.40
2022-10-06T20:44:50.764Z,15.30
2022-10-06T20:47:21.204Z,15.30
2022-10-06T20:49:53.417Z,15.20
2022-10-06T20:52:24.039Z,15.20
2022-10-06T20:54:52.395Z,15.20
2022-10-06T20:57:19.186Z,15.20
2022-10-06T20:59:46.176Z,15.10
2022-10-06T21:02:13.669Z,15.00
2022-10-06T21:04:43.760Z,15.00
2022-10-06T21:07:11.354Z,15.00
2022-10-06T21:09:38.232Z,14.90
2022-10-06T21:12:05.524Z,14.90
2022-10-06T21:14:34.222Z,14.90
2022-10-06T21:17:02.462Z,14.90
2022-10-06T21:19:30.916Z,14.90
2022-10-06T21:21:58.046Z,14.80
2022-10-06T21:24:24.928Z,14.80
2022-10-06T21:26:52.991Z,14.80
2022-10-06T21:29:20.580Z,14.80
2022-10-06T21:31:47.551Z,14.80
2022-10-06T21:34:14.651Z,14.80
2022-10-06T21:36:42.451Z,14.70
2022-10-06T21:39:09.912Z,14.70
2022-10-06T21:41:38.782Z,14.70
2022-10-06T21:44:16.681Z,14.70
2022-10-06T21:46:55.445Z,14.60
2022-10-06T21:49:25.698Z,14.60
2022-10-06T21:51:54.998Z,14.60
2022-10-06T21:54:22.958Z,14.60
2022-10-06T21:56:50.521Z,14.50
2022-10-06T21:59:17.588Z,14.50
2022-10-06T22:01:46.575Z,14.50
2022-10-06T22:04:15.292Z,14.50
2022-10-06T22:06:44.179Z,14.50
2022-10-06T22:09:15.069Z,14.50
2022-10-06T22:11:42.515Z,14.40
2022-10-06T22:14:12.993Z,14.40
2022-10-06T22:16:40.139Z,14.40
2022-10-06T22:19:09.149Z,14.40
2022-10-06T22:21:41.740Z,14.40
2022-10-06T22:24:14.403Z,14.30
2022-10-06T22:26:42.646Z,14.40
2022-10-06T22:29:12.068Z,14.30
2022-10-06T22:31:40.781Z,14.30
2022-10-06T22:34:08.196Z,14.30
2022-10-06T22:36:35.543Z,14.20
2022-10-06T22:39:02.978Z,14.30
2022-10-06T22:41:31.913Z,14.20
2022-10-06T22:43:59.808Z,14.30
2022-10-06T22:46:29.494Z,14.20
2022-10-06T22:48:56.851Z,14.20
2022-10-06T22:51:24.574Z,14.10
2022-10-06T22:53:58.190Z,14.10
2022-10-06T22:56:26.518Z,14.10
2022-10-06T22:58:53.392Z,14.10
2022-10-06T23:01:21.227Z,14.00
2022-10-06T23:03:48.352Z,14.00
2022-10-06T23:06:17.113Z,14.00
2022-10-06T23:08:44.807Z,13.90
2022-10-06T23:11:16.924Z,13.90
2022-10-06T23:13:44.940Z,13.90
2022-10-06T23:16:13.803Z,13.90
2022-10-06T23:18:42.272Z,13.90
2022-10-06T23:21:19.200Z,13.90
2022-10-06T23:23:46.381Z,13.80
2022-10-06T23:26:15.191Z,13.80
2022-10-06T23:28:42.450Z,13.80
2022-10-06T23:31:10.821Z,13.80
2022-10-06T23:33:37.911Z,13.70
2022-10-06T23:36:10.223Z,13.70
2022-10-06T23:38:38.628Z,13.70
2022-10-06T23:41:06.620Z,13.60
2022-10-06T23:43:34.464Z,13.60
2022-10-06T23:46:02.148Z,13.60
2022-10-06T23:48:29.318Z,13.70
2022-10-06T23:51:18.707Z,13.60
2022-10-06T23:53:47.251Z,13.60
2022-10-06T23:56:15.884Z,13.60
2022-10-06T23:58:42.890Z,13.50
